sensor_id;sensor_type;location;lat;lon;timestamp;temperature;humidity
52941;DHT22;62001;53.366;6.636;2023-11-19T00:00:50;10.80;99.90
52941;DHT22;62001;53.366;6.636;2023-11-19T00:03:17;10.90;99.90
52941;DHT22;62001;53.366;6.636;2023-11-19T00:05:43;10.90;99.90
52941;DHT22;62001;53.366;6.636;2023-11-19T00:08:10;11.00;99.90
52941;DHT22;62001;53.366;6.636;2023-11-19T00:10:36;11.10;99.90
52941;DHT22;62001;53.366;6.636;2023-11-19T00:13:02;11.10;99.90
52941;DHT22;62001;53.366;6.636;2023-11-19T00:15:28;11.10;99.90
52941;DHT22;62001;53.366;6.636;2023-11-19T00:17:54;11.10;99.90
52941;DHT22;62001;53.366;6.636;2023-11-19T00:20:20;11.10;99.90
52941;DHT22;62001;53.366;6.636;2023-11-19T00:22:48;11.20;99.90
52941;DHT22;62001;53.366;6.636;2023-11-19T00:25:17;11.20;99.90
52941;DHT22;62001;53.366;6.636;2023-11-19T00:27:43;11.30;99.90
52941;DHT22;62001;53.366;6.636;2023-11-19T00:30:10;11.30;99.90
52941;DHT22;62001;53.366;6.636;2023-11-19T00:32:36;11.40;99.90
52941;DHT22;62001;53.366;6.636;2023-11-19T00:35:05;11.50;99.90
52941;DHT22;62001;53.366;6.636;2023-11-19T00:37:31;11.60;99.90
52941;DHT22;62001;53.366;6.636;2023-11-19T00:39:57;11.60;99.90
52941;DHT22;62001;53.366;6.636;2023-11-19T00:42:24;11.60;99.90
52941;DHT22;62001;53.366;6.636;2023-11-19T00:44:51;11.70;99.90
52941;DHT22;62001;53.366;6.636;2023-11-19T00:47:17;11.80;99.90
52941;DHT22;62001;53.366;6.636;2023-11-19T00:49:47;11.80;99.90
52941;DHT22;62001;53.366;6.636;2023-11-19T00:52:14;11.80;99.90
52941;DHT22;62001;53.366;6.636;2023-11-19T00:54:41;11.80;99.90
52941;DHT22;62001;53.366;6.636;2023-11-19T00:57:07;11.90;99.90
52941;DHT22;62001;53.366;6.636;2023-11-19T00:59:33;11.90;99.90
52941;DHT22;62001;53.366;6.636;2023-11-19T01:01:58;11.90;99.90
52941;DHT22;62001;53.366;6.636;2023-11-19T01:04:29;12.00;99.90
52941;DHT22;62001;53.366;6.636;2023-11-19T01:06:55;11.90;99.90
52941;DHT22;62001;53.366;6.636;2023-11-19T01:09:20;12.00;99.90
52941;DHT22;62001;53.366;6.636;2023-11-19T01:11:46;12.00;99.90
52941;DHT22;62001;53.366;6.636;2023-11-19T01:14:12;12.00;99.90
52941;DHT22;62001;53.366;6.636;2023-11-19T01:16:38;12.00;99.90
52941;DHT22;62001;53.366;6.636;2023-11-19T01:19:03;12.00;99.90
52941;DHT22;62001;53.366;6.636;2023-11-19T01:21:30;12.00;99.90
52941;DHT22;62001;53.366;6.636;2023-11-19T01:23:57;12.00;99.90
52941;DHT22;62001;53.366;6.636;2023-11-19T01:26:25;12.00;99.90
52941;DHT22;62001;53.366;6.636;2023-11-19T01:28:50;12.10;99.90
52941;DHT22;62001;53.366;6.636;2023-11-19T01:31:18;12.00;99.90
52941;DHT22;62001;53.366;6.636;2023-11-19T01:33:44;12.10;99.90
52941;DHT22;62001;53.366;6.636;2023-11-19T01:36:13;12.00;99.90
52941;DHT22;62001;53.366;6.636;2023-11-19T01:38:39;12.00;99.90
52941;DHT22;62001;53.366;6.636;2023-11-19T01:41:05;12.00;99.90
52941;DHT22;62001;53.366;6.636;2023-11-19T01:43:38;12.00;99.90
52941;DHT22;62001;53.366;6.636;2023-11-19T01:46:07;12.00;99.90
52941;DHT22;62001;53.366;6.636;2023-11-19T01:48:37;12.00;99.90
52941;DHT22;62001;53.366;6.636;2023-11-19T01:51:07;12.00;99.90
52941;DHT22;62001;53.366;6.636;2023-11-19T01:53:35;12.00;99.90
52941;DHT22;62001;53.366;6.636;2023-11-19T01:56:03;12.00;99.90
52941;DHT22;62001;53.366;6.636;2023-11-19T01:58:30;12.00;99.90
52941;DHT22;62001;53.366;6.636;2023-11-19T02:00:57;12.00;99.90
52941;DHT22;62001;53.366;6.636;2023-11-19T02:03:24;12.00;99.90
52941;DHT22;62001;53.366;6.636;2023-11-19T02:05:52;12.00;99.90
52941;DHT22;62001;53.366;6.636;2023-11-19T02:08:18;12.00;99.90
52941;DHT22;62001;53.366;6.636;2023-11-19T02:10:45;12.00;99.90
52941;DHT22;62001;53.366;6.636;2023-11-19T02:13:11;11.90;99.90
52941;DHT22;62001;53.366;6.636;2023-11-19T02:15:40;11.90;99.90
52941;DHT22;62001;53.366;6.636;2023-11-19T02:18:23;11.90;99.90
52941;DHT22;62001;53.366;6.636;2023-11-19T02:20:52;11.90;99.90
52941;DHT22;62001;53.366;6.636;2023-11-19T02:23:18;11.90;99.90
52941;DHT22;62001;53.366;6.636;2023-11-19T02:26:03;11.90;99.90
52941;DHT22;62001;53.366;6.636;2023-11-19T02:28:35;12.00;99.90
52941;DHT22;62001;53.366;6.636;2023-11-19T02:31:01;12.00;99.90
52941;DHT22;62001;53.366;6.636;2023-11-19T02:33:27;12.00;99.90
52941;DHT22;62001;53.366;6.636;2023-11-19T02:35:53;12.00;99.90
52941;DHT22;62001;53.366;6.636;2023-11-19T02:38:19;12.00;99.90
52941;DHT22;62001;53.366;6.636;2023-11-19T02:40:47;12.00;99.90
52941;DHT22;62001;53.366;6.636;2023-11-19T02:43:15;12.00;99.90
52941;DHT22;62001;53.366;6.636;2023-11-19T02:45:40;12.00;99.90
52941;DHT22;62001;53.366;6.636;2023-11-19T02:48:07;11.90;99.90
52941;DHT22;62001;53.366;6.636;2023-11-19T02:50:34;11.90;99.90
52941;DHT22;62001;53.366;6.636;2023-11-19T02:53:00;11.90;99.90
52941;DHT22;62001;53.366;6.636;2023-11-19T02:55:26;11.80;99.90
52941;DHT22;62001;53.366;6.636;2023-11-19T02:57:56;11.80;99.90
52941;DHT22;62001;53.366;6.636;2023-11-19T03:00:24;11.70;99.90
52941;DHT22;62001;53.366;6.636;2023-11-19T03:02:57;11.70;99.90
52941;DHT22;62001;53.366;6.636;2023-11-19T03:05:35;11.70;99.90
52941;DHT22;62001;53.366;6.636;2023-11-19T03:08:01;11.70;99.90
52941;DHT22;62001;53.366;6.636;2023-11-19T03:10:28;11.60;99.90
52941;DHT22;62001;53.366;6.636;2023-11-19T03:12:54;11.70;99.90
52941;DHT22;62001;53.366;6.636;2023-11-19T03:15:22;11.70;99.90
52941;DHT22;62001;53.366;6.636;2023-11-19T03:17:48;11.60;99.90
52941;DHT22;62001;53.366;6.636;2023-11-19T03:20:13;11.60;99.90
52941;DHT22;62001;53.366;6.636;2023-11-19T03:22:42;11.60;99.90
52941;DHT22;62001;53.366;6.636;2023-11-19T03:25:10;11.60;99.90
52941;DHT22;62001;53.366;6.636;2023-11-19T03:27:36;11.50;99.90
52941;DHT22;62001;53.366;6.636;2023-11-19T03:30:06;11.50;99.90
52941;DHT22;62001;53.366;6.636;2023-11-19T03:32:32;11.50;99.90
52941;DHT22;62001;53.366;6.636;2023-11-19T03:34:59;11.50;99.90
52941;DHT22;62001;53.366;6.636;2023-11-19T03:37:28;11.50;99.90
52941;DHT22;62001;53.366;6.636;2023-11-19T03:39:54;11.40;99.90
52941;DHT22;62001;53.366;6.636;2023-11-19T03:42:20;11.40;99.90
52941;DHT22;62001;53.366;6.636;2023-11-19T03:44:47;11.40;99.90
52941;DHT22;62001;53.366;6.636;2023-11-19T03:47:12;11.40;99.90
52941;DHT22;62001;53.366;6.636;2023-11-19T03:49:38;11.40;99.90
52941;DHT22;62001;53.366;6.636;2023-11-19T03:52:04;11.40;99.90
52941;DHT22;62001;53.366;6.636;2023-11-19T03:54:30;11.40;99.90
52941;DHT22;62001;53.366;6.636;2023-11-19T03:56:56;11.40;99.90
52941;DHT22;62001;53.366;6.636;2023-11-19T03:59:21;11.50;99.90
52941;DHT22;62001;53.366;6.636;2023-11-19T04:01:47;11.50;99.90
52941;DHT22;62001;53.366;6.636;2023-11-19T04:04:13;11.50;99.90
52941;DHT22;62001;53.366;6.636;2023-11-19T04:06:39;11.60;99.90
52941;DHT22;62001;53.366;6.636;2023-11-19T04:09:05;11.60;99.90
52941;DHT22;62001;53.366;6.636;2023-11-19T04:11:31;11.60;99.90
52941;DHT22;62001;53.366;6.636;2023-11-19T04:13:58;11.60;99.90
52941;DHT22;62001;53.366;6.636;2023-11-19T04:16:27;11.70;99.90
52941;DHT22;62001;53.366;6.636;2023-11-19T04:18:56;11.60;99.90
52941;DHT22;62001;53.366;6.636;2023-11-19T04:21:22;11.60;99.90
52941;DHT22;62001;53.366;6.636;2023-11-19T04:23:49;11.70;99.90
52941;DHT22;62001;53.366;6.636;2023-11-19T04:26:15;11.70;99.90
52941;DHT22;62001;53.366;6.636;2023-11-19T04:28:41;11.70;99.90
52941;DHT22;62001;53.366;6.636;2023-11-19T04:31:07;11.60;99.90
52941;DHT22;62001;53.366;6.636;2023-11-19T04:33:34;11.70;99.90
52941;DHT22;62001;53.366;6.636;2023-11-19T04:36:00;11.70;99.90
52941;DHT22;62001;53.366;6.636;2023-11-19T04:38:26;11.60;99.90
52941;DHT22;62001;53.366;6.636;2023-11-19T04:40:52;11.70;99.90
52941;DHT22;62001;53.366;6.636;2023-11-19T04:43:18;11.70;99.90
52941;DHT22;62001;53.366;6.636;2023-11-19T04:45:46;11.70;99.90
52941;DHT22;62001;53.366;6.636;2023-11-19T04:48:12;11.70;99.90
52941;DHT22;62001;53.366;6.636;2023-11-19T04:50:38;11.70;99.90
52941;DHT22;62001;53.366;6.636;2023-11-19T04:53:04;11.70;99.90
52941;DHT22;62001;53.366;6.636;2023-11-19T04:55:30;11.70;99.90
52941;DHT22;62001;53.366;6.636;2023-11-19T04:57:55;11.70;99.90
52941;DHT22;62001;53.366;6.636;2023-11-19T05:00:21;11.70;99.90
52941;DHT22;62001;53.366;6.636;2023-11-19T05:02:47;11.60;99.90
52941;DHT22;62001;53.366;6.636;2023-11-19T05:05:13;11.60;99.90
52941;DHT22;62001;53.366;6.636;2023-11-19T05:07:40;11.60;99.90
52941;DHT22;62001;53.366;6.636;2023-11-19T05:10:07;11.60;99.90
52941;DHT22;62001;53.366;6.636;2023-11-19T05:12:32;11.60;99.90
52941;DHT22;62001;53.366;6.636;2023-11-19T05:14:58;11.60;99.90
52941;DHT22;62001;53.366;6.636;2023-11-19T05:17:24;11.60;99.90
52941;DHT22;62001;53.366;6.636;2023-11-19T05:19:50;11.50;99.90
52941;DHT22;62001;53.366;6.636;2023-11-19T05:22:16;11.50;99.90
52941;DHT22;62001;53.366;6.636;2023-11-19T05:24:42;11.60;99.90
52941;DHT22;62001;53.366;6.636;2023-11-19T05:27:08;11.50;99.90
52941;DHT22;62001;53.366;6.636;2023-11-19T05:29:34;11.50;99.90
52941;DHT22;62001;53.366;6.636;2023-11-19T05:32:00;11.50;99.90
52941;DHT22;62001;53.366;6.636;2023-11-19T05:34:27;11.50;99.90
52941;DHT22;62001;53.366;6.636;2023-11-19T05:36:52;11.40;99.90
52941;DHT22;62001;53.366;6.636;2023-11-19T05:39:18;11.40;99.90
52941;DHT22;62001;53.366;6.636;2023-11-19T05:41:45;11.40;99.90
52941;DHT22;62001;53.366;6.636;2023-11-19T05:44:11;11.40;99.90
52941;DHT22;62001;53.366;6.636;2023-11-19T05:46:37;11.40;99.90
52941;DHT22;62001;53.366;6.636;2023-11-19T05:49:06;11.40;99.90
52941;DHT22;62001;53.366;6.636;2023-11-19T05:51:36;11.40;99.90
52941;DHT22;62001;53.366;6.636;2023-11-19T05:54:02;11.40;99.90
52941;DHT22;62001;53.366;6.636;2023-11-19T05:56:28;11.40;99.90
52941;DHT22;62001;53.366;6.636;2023-11-19T05:58:58;11.40;99.90
52941;DHT22;62001;53.366;6.636;2023-11-19T06:01:26;11.40;99.90
52941;DHT22;62001;53.366;6.636;2023-11-19T06:03:52;11.30;99.90
52941;DHT22;62001;53.366;6.636;2023-11-19T06:06:18;11.30;99.90
52941;DHT22;62001;53.366;6.636;2023-11-19T06:08:44;11.30;99.90
52941;DHT22;62001;53.366;6.636;2023-11-19T06:11:11;11.30;99.90
52941;DHT22;62001;53.366;6.636;2023-11-19T06:13:44;11.20;99.90
52941;DHT22;62001;53.366;6.636;2023-11-19T06:16:10;11.20;99.90
52941;DHT22;62001;53.366;6.636;2023-11-19T06:18:39;11.20;99.90
52941;DHT22;62001;53.366;6.636;2023-11-19T06:21:05;11.10;99.90
52941;DHT22;62001;53.366;6.636;2023-11-19T06:23:31;11.10;99.90
52941;DHT22;62001;53.366;6.636;2023-11-19T06:25:57;11.10;99.90
52941;DHT22;62001;53.366;6.636;2023-11-19T06:28:23;11.10;99.90
52941;DHT22;62001;53.366;6.636;2023-11-19T06:30:48;11.00;99.90
52941;DHT22;62001;53.366;6.636;2023-11-19T06:33:14;11.10;99.90
52941;DHT22;62001;53.366;6.636;2023-11-19T06:35:40;11.00;99.90
52941;DHT22;62001;53.366;6.636;2023-11-19T06:38:06;11.00;99.90
52941;DHT22;62001;53.366;6.636;2023-11-19T06:40:33;11.00;99.90
52941;DHT22;62001;53.366;6.636;2023-11-19T06:43:00;11.00;99.90
52941;DHT22;62001;53.366;6.636;2023-11-19T06:45:28;11.00;99.90
52941;DHT22;62001;53.366;6.636;2023-11-19T06:47:54;10.90;99.90
52941;DHT22;62001;53.366;6.636;2023-11-19T06:50:20;10.90;99.90
52941;DHT22;62001;53.366;6.636;2023-11-19T06:52:46;10.80;99.90
52941;DHT22;62001;53.366;6.636;2023-11-19T06:55:12;10.80;99.90
52941;DHT22;62001;53.366;6.636;2023-11-19T06:57:37;10.70;99.90
52941;DHT22;62001;53.366;6.636;2023-11-19T07:00:05;10.70;99.90
52941;DHT22;62001;53.366;6.636;2023-11-19T07:02:31;10.70;99.90
52941;DHT22;62001;53.366;6.636;2023-11-19T07:04:57;10.70;99.90
52941;DHT22;62001;53.366;6.636;2023-11-19T07:07:23;10.60;99.90
52941;DHT22;62001;53.366;6.636;2023-11-19T07:09:49;10.60;99.90
52941;DHT22;62001;53.366;6.636;2023-11-19T07:12:15;10.60;99.90
52941;DHT22;62001;53.366;6.636;2023-11-19T07:14:41;10.60;99.90
52941;DHT22;62001;53.366;6.636;2023-11-19T07:17:07;10.60;99.90
52941;DHT22;62001;53.366;6.636;2023-11-19T07:19:34;10.60;99.90
52941;DHT22;62001;53.366;6.636;2023-11-19T07:22:02;10.60;99.90
52941;DHT22;62001;53.366;6.636;2023-11-19T07:24:28;10.60;99.90
52941;DHT22;62001;53.366;6.636;2023-11-19T07:26:54;10.60;99.90
52941;DHT22;62001;53.366;6.636;2023-11-19T07:29:20;10.70;99.90
52941;DHT22;62001;53.366;6.636;2023-11-19T07:31:49;10.80;99.90
52941;DHT22;62001;53.366;6.636;2023-11-19T07:34:15;10.80;99.90
52941;DHT22;62001;53.366;6.636;2023-11-19T07:36:40;10.80;99.90
52941;DHT22;62001;53.366;6.636;2023-11-19T07:39:06;10.80;99.90
52941;DHT22;62001;53.366;6.636;2023-11-19T07:41:32;10.80;99.90
52941;DHT22;62001;53.366;6.636;2023-11-19T07:43:58;10.90;99.90
52941;DHT22;62001;53.366;6.636;2023-11-19T07:46:24;10.90;99.90
52941;DHT22;62001;53.366;6.636;2023-11-19T07:48:51;10.90;99.90
52941;DHT22;62001;53.366;6.636;2023-11-19T07:51:17;10.90;99.90
52941;DHT22;62001;53.366;6.636;2023-11-19T07:53:43;10.90;99.90
52941;DHT22;62001;53.366;6.636;2023-11-19T07:56:10;11.00;99.90
52941;DHT22;62001;53.366;6.636;2023-11-19T07:58:36;11.00;99.90
52941;DHT22;62001;53.366;6.636;2023-11-19T08:01:02;11.00;99.90
52941;DHT22;62001;53.366;6.636;2023-11-19T08:03:28;11.00;99.90
52941;DHT22;62001;53.366;6.636;2023-11-19T08:05:57;11.10;99.90
52941;DHT22;62001;53.366;6.636;2023-11-19T08:08:24;11.10;99.90
52941;DHT22;62001;53.366;6.636;2023-11-19T08:10:49;11.10;99.90
52941;DHT22;62001;53.366;6.636;2023-11-19T08:13:18;11.10;99.90
52941;DHT22;62001;53.366;6.636;2023-11-19T08:15:44;11.20;99.90
52941;DHT22;62001;53.366;6.636;2023-11-19T08:18:10;11.20;99.90
52941;DHT22;62001;53.366;6.636;2023-11-19T08:20:36;11.30;99.90
52941;DHT22;62001;53.366;6.636;2023-11-19T08:23:04;11.30;99.90
52941;DHT22;62001;53.366;6.636;2023-11-19T08:25:30;11.30;99.90
52941;DHT22;62001;53.366;6.636;2023-11-19T08:27:56;11.30;99.90
52941;DHT22;62001;53.366;6.636;2023-11-19T08:30:22;11.40;99.90
52941;DHT22;62001;53.366;6.636;2023-11-19T08:32:48;11.40;99.90
52941;DHT22;62001;53.366;6.636;2023-11-19T08:35:14;11.40;99.90
52941;DHT22;62001;53.366;6.636;2023-11-19T08:37:41;11.40;99.90
52941;DHT22;62001;53.366;6.636;2023-11-19T08:40:08;11.40;99.90
52941;DHT22;62001;53.366;6.636;2023-11-19T08:42:34;11.40;99.90
52941;DHT22;62001;53.366;6.636;2023-11-19T08:44:59;11.40;99.90
52941;DHT22;62001;53.366;6.636;2023-11-19T08:47:25;11.30;99.90
52941;DHT22;62001;53.366;6.636;2023-11-19T08:49:51;11.40;99.90
52941;DHT22;62001;53.366;6.636;2023-11-19T08:52:20;11.40;99.90
52941;DHT22;62001;53.366;6.636;2023-11-19T08:54:46;11.40;99.90
52941;DHT22;62001;53.366;6.636;2023-11-19T08:57:12;11.40;99.90
52941;DHT22;62001;53.366;6.636;2023-11-19T08:59:38;11.40;99.90
52941;DHT22;62001;53.366;6.636;2023-11-19T09:02:07;11.40;99.90
52941;DHT22;62001;53.366;6.636;2023-11-19T09:04:33;11.40;99.90
52941;DHT22;62001;53.366;6.636;2023-11-19T09:06:59;11.50;99.90
52941;DHT22;62001;53.366;6.636;2023-11-19T09:09:25;11.50;99.90
52941;DHT22;62001;53.366;6.636;2023-11-19T09:11:51;11.50;99.90
52941;DHT22;62001;53.366;6.636;2023-11-19T09:14:17;11.60;99.90
52941;DHT22;62001;53.366;6.636;2023-11-19T09:16:43;11.70;99.90
52941;DHT22;62001;53.366;6.636;2023-11-19T09:19:09;11.70;99.90
52941;DHT22;62001;53.366;6.636;2023-11-19T09:21:35;11.80;99.90
52941;DHT22;62001;53.366;6.636;2023-11-19T09:24:04;11.90;99.90
52941;DHT22;62001;53.366;6.636;2023-11-19T09:26:30;12.00;99.90
52941;DHT22;62001;53.366;6.636;2023-11-19T09:28:56;12.10;99.90
52941;DHT22;62001;53.366;6.636;2023-11-19T09:31:22;12.20;99.90
52941;DHT22;62001;53.366;6.636;2023-11-19T09:33:48;12.40;99.90
52941;DHT22;62001;53.366;6.636;2023-11-19T09:36:14;12.60;99.90
52941;DHT22;62001;53.366;6.636;2023-11-19T09:38:40;12.70;99.90
52941;DHT22;62001;53.366;6.636;2023-11-19T09:41:06;13.00;99.90
52941;DHT22;62001;53.366;6.636;2023-11-19T09:43:38;13.10;99.90
52941;DHT22;62001;53.366;6.636;2023-11-19T09:46:06;13.10;99.90
52941;DHT22;62001;53.366;6.636;2023-11-19T09:48:35;13.30;99.90
52941;DHT22;62001;53.366;6.636;2023-11-19T09:51:07;13.50;99.90
52941;DHT22;62001;53.366;6.636;2023-11-19T09:53:34;13.90;99.90
52941;DHT22;62001;53.366;6.636;2023-11-19T09:56:02;14.10;99.90
52941;DHT22;62001;53.366;6.636;2023-11-19T09:58:29;14.30;99.90
52941;DHT22;62001;53.366;6.636;2023-11-19T10:00:57;14.60;99.90
52941;DHT22;62001;53.366;6.636;2023-11-19T10:03:35;14.80;99.90
52941;DHT22;62001;53.366;6.636;2023-11-19T10:06:04;14.90;99.90
52941;DHT22;62001;53.366;6.636;2023-11-19T10:08:30;14.80;99.90
52941;DHT22;62001;53.366;6.636;2023-11-19T10:10:56;14.60;99.90
52941;DHT22;62001;53.366;6.636;2023-11-19T10:13:28;14.40;99.90
52941;DHT22;62001;53.366;6.636;2023-11-19T10:15:56;14.20;99.90
52941;DHT22;62001;53.366;6.636;2023-11-19T10:18:26;14.10;99.90
52941;DHT22;62001;53.366;6.636;2023-11-19T10:20:52;14.20;99.90
52941;DHT22;62001;53.366;6.636;2023-11-19T10:23:19;14.30;99.90
52941;DHT22;62001;53.366;6.636;2023-11-19T10:25:45;14.30;99.90
52941;DHT22;62001;53.366;6.636;2023-11-19T10:28:11;14.30;99.90
52941;DHT22;62001;53.366;6.636;2023-11-19T10:30:36;14.60;99.90
52941;DHT22;62001;53.366;6.636;2023-11-19T10:35:28;14.50;99.90
52941;DHT22;62001;53.366;6.636;2023-11-19T10:37:54;14.40;99.90
52941;DHT22;62001;53.366;6.636;2023-11-19T10:40:19;14.30;99.90
52941;DHT22;62001;53.366;6.636;2023-11-19T10:42:45;14.00;99.90
52941;DHT22;62001;53.366;6.636;2023-11-19T10:45:23;13.80;99.90
52941;DHT22;62001;53.366;6.636;2023-11-19T10:47:51;13.50;99.90
52941;DHT22;62001;53.366;6.636;2023-11-19T10:50:18;13.30;99.90
52941;DHT22;62001;53.366;6.636;2023-11-19T10:52:44;13.10;99.90
52941;DHT22;62001;53.366;6.636;2023-11-19T10:55:15;13.00;99.90
52941;DHT22;62001;53.366;6.636;2023-11-19T10:57:46;12.90;99.90
52941;DHT22;62001;53.366;6.636;2023-11-19T11:00:15;12.80;99.90
52941;DHT22;62001;53.366;6.636;2023-11-19T11:02:44;12.80;99.90
52941;DHT22;62001;53.366;6.636;2023-11-19T11:05:12;12.70;99.90
52941;DHT22;62001;53.366;6.636;2023-11-19T11:10:14;12.50;99.90
52941;DHT22;62001;53.366;6.636;2023-11-19T11:12:43;12.40;99.90
52941;DHT22;62001;53.366;6.636;2023-11-19T11:15:11;12.30;99.90
52941;DHT22;62001;53.366;6.636;2023-11-19T11:17:41;12.30;99.90
52941;DHT22;62001;53.366;6.636;2023-11-19T11:20:08;12.30;99.90
52941;DHT22;62001;53.366;6.636;2023-11-19T11:33:58;12.30;99.90
52941;DHT22;62001;53.366;6.636;2023-11-19T11:36:25;12.30;99.90
52941;DHT22;62001;53.366;6.636;2023-11-19T11:38:52;12.30;99.90
52941;DHT22;62001;53.366;6.636;2023-11-19T11:41:23;12.40;99.90
52941;DHT22;62001;53.366;6.636;2023-11-19T11:43:53;12.60;99.90
52941;DHT22;62001;53.366;6.636;2023-11-19T11:49:06;12.80;99.90
52941;DHT22;62001;53.366;6.636;2023-11-19T11:54:11;13.00;99.90
52941;DHT22;62001;53.366;6.636;2023-11-19T11:56:37;13.00;99.90
52941;DHT22;62001;53.366;6.636;2023-11-19T11:59:19;13.00;99.90
52941;DHT22;62001;53.366;6.636;2023-11-19T12:01:58;12.90;99.90
52941;DHT22;62001;53.366;6.636;2023-11-19T12:04:26;12.90;99.90
52941;DHT22;62001;53.366;6.636;2023-11-19T12:07:17;12.90;99.90
52941;DHT22;62001;53.366;6.636;2023-11-19T12:10:08;12.90;99.90
52941;DHT22;62001;53.366;6.636;2023-11-19T12:12:41;12.80;99.90
52941;DHT22;62001;53.366;6.636;2023-11-19T12:15:08;12.80;99.90
52941;DHT22;62001;53.366;6.636;2023-11-19T12:20:10;12.70;99.90
52941;DHT22;62001;53.366;6.636;2023-11-19T12:22:40;12.70;99.90
52941;DHT22;62001;53.366;6.636;2023-11-19T12:25:07;12.60;99.90
52941;DHT22;62001;53.366;6.636;2023-11-19T12:27:34;12.40;99.90
52941;DHT22;62001;53.366;6.636;2023-11-19T12:30:03;12.30;99.90
52941;DHT22;62001;53.366;6.636;2023-11-19T12:32:45;12.20;99.90
52941;DHT22;62001;53.366;6.636;2023-11-19T12:35:12;12.20;99.90
52941;DHT22;62001;53.366;6.636;2023-11-19T12:37:42;12.10;99.90
52941;DHT22;62001;53.366;6.636;2023-11-19T12:40:15;12.10;99.90
52941;DHT22;62001;53.366;6.636;2023-11-19T12:42:41;12.00;99.90
52941;DHT22;62001;53.366;6.636;2023-11-19T12:45:08;11.90;99.90
52941;DHT22;62001;53.366;6.636;2023-11-19T12:47:38;11.80;99.90
52941;DHT22;62001;53.366;6.636;2023-11-19T12:50:05;11.80;99.90
52941;DHT22;62001;53.366;6.636;2023-11-19T12:52:32;11.70;99.90
52941;DHT22;62001;53.366;6.636;2023-11-19T12:54:58;11.70;99.90
52941;DHT22;62001;53.366;6.636;2023-11-19T12:57:37;11.70;99.90
52941;DHT22;62001;53.366;6.636;2023-11-19T13:00:05;11.70;99.90
52941;DHT22;62001;53.366;6.636;2023-11-19T13:05:32;11.80;99.90
52941;DHT22;62001;53.366;6.636;2023-11-19T13:08:06;11.90;99.90
52941;DHT22;62001;53.366;6.636;2023-11-19T13:10:33;12.00;99.90
52941;DHT22;62001;53.366;6.636;2023-11-19T13:13:02;12.00;99.90
52941;DHT22;62001;53.366;6.636;2023-11-19T13:15:29;12.10;99.90
52941;DHT22;62001;53.366;6.636;2023-11-19T13:17:55;12.10;99.90
52941;DHT22;62001;53.366;6.636;2023-11-19T13:20:21;12.20;99.90
52941;DHT22;62001;53.366;6.636;2023-11-19T13:23:00;12.20;99.90
52941;DHT22;62001;53.366;6.636;2023-11-19T13:25:27;12.20;99.90
52941;DHT22;62001;53.366;6.636;2023-11-19T13:27:54;12.30;99.90
52941;DHT22;62001;53.366;6.636;2023-11-19T13:30:21;12.30;99.90
52941;DHT22;62001;53.366;6.636;2023-11-19T13:32:48;12.30;99.90
52941;DHT22;62001;53.366;6.636;2023-11-19T13:35:14;12.30;99.90
52941;DHT22;62001;53.366;6.636;2023-11-19T13:37:41;12.30;99.90
52941;DHT22;62001;53.366;6.636;2023-11-19T13:40:07;12.40;99.90
52941;DHT22;62001;53.366;6.636;2023-11-19T13:42:38;12.30;99.90
52941;DHT22;62001;53.366;6.636;2023-11-19T13:45:13;12.30;99.90
52941;DHT22;62001;53.366;6.636;2023-11-19T13:47:41;12.30;99.90
52941;DHT22;62001;53.366;6.636;2023-11-19T13:50:12;12.40;99.90
52941;DHT22;62001;53.366;6.636;2023-11-19T13:52:39;12.30;99.90
52941;DHT22;62001;53.366;6.636;2023-11-19T13:55:07;12.30;99.90
52941;DHT22;62001;53.366;6.636;2023-11-19T13:57:34;12.30;99.90
52941;DHT22;62001;53.366;6.636;2023-11-19T14:00:04;12.30;99.90
52941;DHT22;62001;53.366;6.636;2023-11-19T14:02:32;12.30;99.90
52941;DHT22;62001;53.366;6.636;2023-11-19T14:04:58;12.30;99.90
52941;DHT22;62001;53.366;6.636;2023-11-19T14:07:24;12.30;99.90
52941;DHT22;62001;53.366;6.636;2023-11-19T14:09:50;12.20;99.90
52941;DHT22;62001;53.366;6.636;2023-11-19T14:12:16;12.20;99.90
52941;DHT22;62001;53.366;6.636;2023-11-19T14:14:43;12.20;99.90
52941;DHT22;62001;53.366;6.636;2023-11-19T14:17:09;12.20;99.90
52941;DHT22;62001;53.366;6.636;2023-11-19T14:19:36;12.20;99.90
52941;DHT22;62001;53.366;6.636;2023-11-19T14:22:03;12.10;99.90
52941;DHT22;62001;53.366;6.636;2023-11-19T14:24:29;12.10;99.90
52941;DHT22;62001;53.366;6.636;2023-11-19T14:26:55;12.10;99.90
52941;DHT22;62001;53.366;6.636;2023-11-19T14:29:24;12.10;99.90
52941;DHT22;62001;53.366;6.636;2023-11-19T14:31:55;12.00;99.90
52941;DHT22;62001;53.366;6.636;2023-11-19T14:34:21;12.00;99.90
52941;DHT22;62001;53.366;6.636;2023-11-19T14:36:47;12.00;99.90
52941;DHT22;62001;53.366;6.636;2023-11-19T14:39:14;11.90;99.90
52941;DHT22;62001;53.366;6.636;2023-11-19T14:41:40;11.90;99.90
52941;DHT22;62001;53.366;6.636;2023-11-19T14:44:09;11.80;99.90
52941;DHT22;62001;53.366;6.636;2023-11-19T14:46:35;11.80;99.90
52941;DHT22;62001;53.366;6.636;2023-11-19T14:49:01;11.70;99.90
52941;DHT22;62001;53.366;6.636;2023-11-19T14:51:30;11.70;99.90
52941;DHT22;62001;53.366;6.636;2023-11-19T14:53:56;11.70;99.90
52941;DHT22;62001;53.366;6.636;2023-11-19T14:56:21;11.70;99.90
52941;DHT22;62001;53.366;6.636;2023-11-19T14:58:47;11.60;99.90
52941;DHT22;62001;53.366;6.636;2023-11-19T15:01:16;11.60;99.90
52941;DHT22;62001;53.366;6.636;2023-11-19T15:03:42;11.60;99.90
52941;DHT22;62001;53.366;6.636;2023-11-19T15:06:07;11.60;99.90
52941;DHT22;62001;53.366;6.636;2023-11-19T15:08:33;11.60;99.90
52941;DHT22;62001;53.366;6.636;2023-11-19T15:10:59;11.60;99.90
52941;DHT22;62001;53.366;6.636;2023-11-19T15:13:27;11.50;99.90
52941;DHT22;62001;53.366;6.636;2023-11-19T15:15:53;11.50;99.90
52941;DHT22;62001;53.366;6.636;2023-11-19T15:18:20;11.50;99.90
52941;DHT22;62001;53.366;6.636;2023-11-19T15:20:46;11.50;99.90
52941;DHT22;62001;53.366;6.636;2023-11-19T15:23:13;11.50;99.90
52941;DHT22;62001;53.366;6.636;2023-11-19T15:25:39;11.40;99.90
52941;DHT22;62001;53.366;6.636;2023-11-19T15:28:05;11.40;99.90
52941;DHT22;62001;53.366;6.636;2023-11-19T15:30:31;11.40;99.90
52941;DHT22;62001;53.366;6.636;2023-11-19T15:32:56;11.40;99.90
52941;DHT22;62001;53.366;6.636;2023-11-19T15:35:22;11.30;99.90
52941;DHT22;62001;53.366;6.636;2023-11-19T15:37:48;11.30;99.90
52941;DHT22;62001;53.366;6.636;2023-11-19T15:40:14;11.30;99.90
52941;DHT22;62001;53.366;6.636;2023-11-19T15:42:40;11.20;99.90
52941;DHT22;62001;53.366;6.636;2023-11-19T15:45:07;11.20;99.90
52941;DHT22;62001;53.366;6.636;2023-11-19T15:47:35;11.20;99.90
52941;DHT22;62001;53.366;6.636;2023-11-19T15:50:02;11.20;99.90
52941;DHT22;62001;53.366;6.636;2023-11-19T15:52:31;11.20;99.90
52941;DHT22;62001;53.366;6.636;2023-11-19T15:54:57;11.20;99.90
52941;DHT22;62001;53.366;6.636;2023-11-19T15:57:23;11.10;99.90